Time;durP1;ratioP1;P1;durP2;ratioP2;P2;SDS_P1;SDS_P2;PMS_P1;PMS_P2;Temp;Humidity;BMP_temperature;BMP_pressure;BME280_temperature;BME280_humidity;BME280_pressure;Samples;Min_cycle;Max_cycle;Signal;HPM_P1;HPM_P2
2023/04/07 00:00:12;;;;;;;102.82;28.92;;;8.10;99.90;;;6.94;100.00;97353.44;5019249;28;20478;-81
2023/04/07 00:02:41;;;;;;;107.32;28.25;;;8.00;99.90;;;6.92;100.00;97343.13;5018699;28;20397;-81
2023/04/07 00:05:07;;;;;;;96.18;25.88;;;8.00;99.90;;;6.95;100.00;97355.03;5018791;28;20413;-81
2023/04/07 00:07:33;;;;;;;109.68;29.85;;;8.00;99.90;;;6.99;100.00;97349.09;5019241;28;20436;-81
2023/04/07 00:09:59;;;;;;;121.72;33.13;;;8.00;99.90;;;7.00;100.00;97345.44;5018972;28;20404;-80
2023/04/07 00:12:25;;;;;;;91.40;27.08;;;8.10;99.90;;;6.98;100.00;97346.72;5018308;28;20401;-80
2023/04/07 00:14:51;;;;;;;108.07;30.00;;;8.10;99.90;;;6.99;100.00;97340.41;5018686;28;20464;-80
2023/04/07 00:17:17;;;;;;;95.07;26.33;;;8.10;99.90;;;6.99;100.00;97343.81;5018624;28;20412;-80
2023/04/07 00:19:44;;;;;;;107.53;29.37;;;8.00;99.90;;;6.98;100.00;97336.97;5016922;28;20413;-78
2023/04/07 00:22:10;;;;;;;124.22;30.73;;;8.10;99.90;;;7.01;100.00;97335.69;5016392;28;20439;-80
2023/04/07 00:24:36;;;;;;;128.85;33.72;;;8.10;99.90;;;7.07;100.00;97342.69;5017091;28;20405;-80
2023/04/07 00:27:01;;;;;;;117.93;31.53;;;8.10;99.90;;;7.02;100.00;97331.25;5016507;28;20417;-79
2023/04/07 00:29:27;;;;;;;105.35;29.45;;;8.10;99.90;;;6.95;100.00;97331.38;5016299;28;20766;-79
2023/04/07 00:31:53;;;;;;;133.00;33.53;;;8.00;99.90;;;6.95;100.00;97323.47;5018015;28;20411;-81
2023/04/07 00:34:19;;;;;;;104.20;28.60;;;8.00;99.90;;;6.92;100.00;97322.09;5017877;28;20862;-81
2023/04/07 00:36:50;;;;;;;127.73;32.47;;;8.00;99.90;;;6.96;100.00;97325.88;5017687;28;20466;-81
2023/04/07 00:39:17;;;;;;;98.15;26.42;;;8.00;99.90;;;6.91;100.00;97317.88;5018456;28;20420;-81
2023/04/07 00:41:44;;;;;;;86.97;25.63;;;8.00;99.90;;;6.91;100.00;97315.25;5018926;28;20412;-81
2023/04/07 00:44:10;;;;;;;121.90;31.10;;;8.00;99.90;;;6.93;100.00;97305.28;5018861;28;20416;-81
2023/04/07 00:46:36;;;;;;;102.95;29.58;;;8.00;99.90;;;6.93;100.00;97300.00;5018997;28;20817;-81
2023/04/07 00:49:02;;;;;;;135.57;31.95;;;8.00;99.90;;;6.92;100.00;97302.88;5019104;28;20412;-82
2023/04/07 00:51:30;;;;;;;160.30;38.80;;;8.10;99.90;;;6.98;100.00;97301.97;5018945;28;20428;-82
2023/04/07 00:53:58;;;;;;;132.38;34.90;;;8.00;99.90;;;6.87;100.00;97295.66;5018287;28;20409;-82
2023/04/07 00:56:24;;;;;;;131.82;34.83;;;7.90;99.90;;;6.82;100.00;97300.81;5018783;28;20397;-83
2023/04/07 00:58:50;;;;;;;130.97;34.43;;;7.90;99.90;;;6.83;100.00;97299.00;5019397;28;20488;-83
2023/04/07 01:01:23;;;;;;;117.45;34.13;;;7.90;99.90;;;6.85;100.00;97292.47;5020911;28;20407;-81
2023/04/07 01:03:56;;;;;;;125.93;34.30;;;8.00;99.90;;;6.84;100.00;97285.59;5017315;28;20433;-83
2023/04/07 01:06:30;;;;;;;128.47;35.53;;;7.90;99.90;;;6.83;100.00;97281.38;5016347;28;20397;-83
2023/04/07 01:09:03;;;;;;;152.73;37.45;;;7.90;99.90;;;6.86;100.00;97278.28;5016505;28;20459;-81
2023/04/07 01:11:39;;;;;;;144.80;40.13;;;7.90;99.90;;;6.84;100.00;97275.06;5016521;28;20433;-82
2023/04/07 01:14:07;;;;;;;151.20;41.22;;;7.90;99.90;;;6.81;100.00;97275.53;4998775;28;20491;-83
2023/04/07 01:16:39;;;;;;;136.05;35.72;;;7.80;99.90;;;6.72;100.00;97278.75;4998349;28;20403;-82
2023/04/07 01:19:14;;;;;;;155.55;42.10;;;7.80;99.90;;;6.73;100.00;97264.56;5015395;28;20444;-81
2023/04/07 01:21:43;;;;;;;125.75;37.80;;;7.70;99.90;;;6.61;100.00;97265.34;5013222;28;20415;-81
2023/04/07 01:24:38;;;;;;;120.57;33.67;;;7.70;99.90;;;6.58;100.00;97257.94;5026335;28;20540;-81
2023/04/07 01:27:19;;;;;;;139.68;36.42;;;7.70;99.90;;;6.60;100.00;97261.13;5018379;28;20886;-83
2023/04/07 01:29:49;;;;;;;154.25;43.55;;;7.70;99.90;;;6.60;100.00;97262.97;5000015;28;20409;-82
2023/04/07 01:32:19;;;;;;;125.63;36.88;;;7.60;99.90;;;6.45;100.00;97257.34;5000598;28;20405;-83
2023/04/07 01:34:48;;;;;;;123.78;37.63;;;7.50;99.90;;;6.38;100.00;97252.22;5018512;28;20396;-82
2023/04/07 01:37:15;;;;;;;134.33;37.83;;;7.40;99.90;;;6.37;100.00;97253.22;5019205;28;20400;-82
2023/04/07 01:39:41;;;;;;;156.32;38.47;;;7.40;99.90;;;6.42;100.00;97249.91;5016902;28;20772;-80
2023/04/07 01:42:08;;;;;;;123.63;36.47;;;7.40;99.90;;;6.37;100.00;97244.53;5016986;28;20412;-82
2023/04/07 01:44:34;;;;;;;148.52;38.33;;;7.40;99.90;;;6.40;100.00;97249.34;5017364;28;20969;-82
2023/04/07 01:47:02;;;;;;;153.95;40.85;;;7.50;99.90;;;6.52;100.00;97255.41;4999715;28;20404;-82
2023/04/07 01:49:29;;;;;;;147.90;39.45;;;7.50;99.90;;;6.44;100.00;97245.25;5017111;28;20403;-82
2023/04/07 01:51:57;;;;;;;155.13;42.23;;;7.50;99.90;;;6.48;100.00;97239.28;5017525;28;20464;-82
2023/04/07 01:54:24;;;;;;;151.85;41.50;;;7.40;99.90;;;6.37;100.00;97234.03;5018254;28;20404;-82
2023/04/07 01:56:50;;;;;;;144.25;41.20;;;7.40;99.90;;;6.34;100.00;97237.91;5018595;28;20401;-82
2023/04/07 01:59:16;;;;;;;143.45;39.22;;;7.30;99.90;;;6.22;100.00;97237.09;5017956;28;20412;-81
2023/04/07 02:01:42;;;;;;;124.53;37.58;;;7.20;99.90;;;6.19;100.00;97225.22;5019158;28;20465;-81
2023/04/07 02:04:20;;;;;;;157.43;42.05;;;7.20;99.90;;;6.26;100.00;97230.34;5018749;28;20766;-81
2023/04/07 02:06:53;;;;;;;116.70;36.78;;;7.30;99.90;;;6.19;100.00;97233.09;5019205;28;20401;-81
2023/04/07 02:09:23;;;;;;;152.27;42.47;;;7.20;99.90;;;6.18;100.00;97226.22;5019280;28;20432;-82
2023/04/07 02:11:51;;;;;;;154.52;42.30;;;7.20;99.90;;;6.17;100.00;97224.63;5002242;28;20408;-81
2023/04/07 02:14:20;;;;;;;146.27;40.78;;;7.10;99.90;;;6.12;100.00;97219.25;5001430;28;20878;-82
2023/04/07 02:16:47;;;;;;;139.35;38.22;;;7.10;99.90;;;6.07;100.00;97216.53;4999336;28;20886;-82
2023/04/07 02:19:14;;;;;;;152.95;41.30;;;7.10;99.90;;;6.16;100.00;97224.88;5019819;28;20425;-81
2023/04/07 02:21:42;;;;;;;160.05;42.25;;;7.20;99.90;;;6.22;100.00;97218.72;4997592;28;20424;-81
2023/04/07 02:24:10;;;;;;;151.52;42.17;;;7.20;99.90;;;6.17;100.00;97214.13;5015077;28;20459;-80
2023/04/07 02:26:36;;;;;;;150.27;40.95;;;7.10;99.90;;;6.13;100.00;97212.19;5015219;28;20432;-81
2023/04/07 02:29:03;;;;;;;154.95;41.38;;;7.10;99.90;;;6.10;100.00;97221.31;5014866;28;20467;-80
2023/04/07 02:31:29;;;;;;;139.48;40.58;;;7.10;99.90;;;6.02;100.00;97210.31;5015439;28;20893;-81
2023/04/07 02:33:55;;;;;;;142.43;41.13;;;7.00;99.90;;;6.06;100.00;97209.66;5015559;28;20404;-82
2023/04/07 02:36:22;;;;;;;132.38;35.70;;;7.00;99.90;;;6.06;100.00;97208.84;4997390;28;20710;-81
2023/04/07 02:38:48;;;;;;;152.77;41.88;;;7.10;99.90;;;6.12;100.00;97194.81;4997095;28;20421;-81
2023/04/07 02:41:14;;;;;;;148.40;39.45;;;7.10;99.90;;;6.16;100.00;97203.84;5014667;28;20412;-81
2023/04/07 02:43:40;;;;;;;153.63;38.20;;;7.20;99.90;;;6.15;100.00;97199.63;5015272;28;20474;-81
2023/04/07 02:46:06;;;;;;;133.48;38.58;;;7.20;99.90;;;6.25;100.00;97201.66;5015336;28;20448;-80
2023/04/07 02:48:32;;;;;;;133.55;35.80;;;7.30;99.90;;;6.31;100.00;97201.56;5015127;28;20408;-80
2023/04/07 02:50:58;;;;;;;112.22;31.50;;;7.40;99.90;;;6.37;100.00;97200.66;5015324;28;20431;-81
2023/04/07 02:53:25;;;;;;;125.80;35.05;;;7.40;99.90;;;6.42;100.00;97192.06;4998174;28;20467;-81
2023/04/07 02:55:51;;;;;;;150.13;36.85;;;7.50;99.90;;;6.46;100.00;97188.78;5014896;28;20451;-79
2023/04/07 02:58:17;;;;;;;143.23;37.72;;;7.50;99.90;;;6.50;100.00;97189.91;5015959;28;20448;-81
2023/04/07 03:00:43;;;;;;;127.78;36.53;;;7.50;99.90;;;6.46;100.00;97190.59;5018096;28;20424;-79
2023/04/07 03:03:09;;;;;;;137.23;36.17;;;7.50;99.90;;;6.38;100.00;97183.88;4999408;28;20480;-79
2023/04/07 03:05:35;;;;;;;121.43;33.42;;;7.40;99.90;;;6.37;100.00;97186.72;5017694;28;20404;-79
2023/04/07 03:08:01;;;;;;;158.03;43.73;;;7.40;99.90;;;6.45;100.00;97192.44;5017823;28;20754;-79
2023/04/07 03:10:28;;;;;;;139.50;40.80;;;7.40;99.90;;;6.43;100.00;97191.06;5017859;28;20436;-80
2023/04/07 03:12:54;;;;;;;142.85;38.72;;;7.40;99.90;;;6.38;100.00;97185.69;5017318;28;20902;-79
2023/04/07 03:15:20;;;;;;;146.37;38.27;;;7.40;99.90;;;6.31;100.00;97192.88;5017043;28;20405;-80
2023/04/07 03:17:46;;;;;;;147.20;39.65;;;7.30;99.90;;;6.29;100.00;97187.06;4999638;28;20444;-80
2023/04/07 03:20:12;;;;;;;127.22;35.63;;;7.30;99.90;;;6.24;100.00;97185.09;5016814;28;20412;-81
2023/04/07 03:22:38;;;;;;;146.48;38.67;;;7.30;99.90;;;6.28;100.00;97178.38;5017380;28;20507;-81
2023/04/07 03:25:04;;;;;;;116.35;33.22;;;7.30;99.90;;;6.29;100.00;97173.91;4999318;28;20413;-79
2023/04/07 03:27:32;;;;;;;122.13;33.92;;;7.40;99.90;;;6.35;100.00;97180.88;5016687;28;20448;-80
2023/04/07 03:29:58;;;;;;;154.82;39.40;;;7.40;99.90;;;6.34;100.00;97176.66;4999033;28;20416;-81
2023/04/07 03:32:25;;;;;;;151.83;40.80;;;7.40;99.90;;;6.36;100.00;97178.03;5016561;28;20409;-79
2023/04/07 03:34:51;;;;;;;147.52;40.75;;;7.40;99.90;;;6.24;100.00;97166.69;5017394;28;20404;-78
2023/04/07 03:37:17;;;;;;;112.77;33.00;;;7.20;99.90;;;6.19;100.00;97167.38;5017207;28;20763;-79
2023/04/07 03:39:42;;;;;;;125.67;34.87;;;7.20;99.90;;;6.22;100.00;97166.16;4999732;28;20511;-79
2023/04/07 03:42:08;;;;;;;126.63;35.03;;;7.30;99.90;;;6.29;100.00;97166.03;4999483;28;20424;-79
2023/04/07 03:44:36;;;;;;;135.68;37.38;;;7.30;99.90;;;6.31;100.00;97167.41;5017604;28;20424;-78
2023/04/07 03:47:01;;;;;;;147.70;38.35;;;7.30;99.90;;;6.32;100.00;97161.09;5017475;28;20423;-78
2023/04/07 03:49:29;;;;;;;144.15;40.25;;;7.30;99.90;;;6.37;100.00;97161.22;5017117;28;20408;-79
2023/04/07 03:51:55;;;;;;;140.27;39.45;;;7.40;99.90;;;6.32;100.00;97162.91;4999575;28;20412;-80
2023/04/07 03:54:21;;;;;;;123.15;35.30;;;7.30;99.90;;;6.24;100.00;97163.28;5017863;28;20443;-78
2023/04/07 03:56:47;;;;;;;139.27;39.70;;;7.30;99.90;;;6.24;100.00;97158.81;5017580;28;20539;-79
2023/04/07 03:59:13;;;;;;;140.07;37.97;;;7.20;99.90;;;6.25;100.00;97155.16;5017429;28;20528;-79
2023/04/07 04:01:40;;;;;;;137.13;36.78;;;7.30;99.90;;;6.24;100.00;97155.41;5016602;28;21032;-78
2023/04/07 04:04:06;;;;;;;128.18;34.30;;;7.30;99.90;;;6.23;100.00;97159.88;5015997;28;20405;-79
2023/04/07 04:06:32;;;;;;;130.25;33.13;;;7.30;99.90;;;6.25;100.00;97159.59;5015816;28;20917;-78
2023/04/07 04:08:58;;;;;;;108.20;32.90;;;7.30;99.90;;;6.29;100.00;97156.31;5015571;28;20440;-78
2023/04/07 04:11:25;;;;;;;145.57;37.78;;;7.30;99.90;;;6.28;100.00;97153.91;5015404;28;20504;-78
2023/04/07 04:13:50;;;;;;;124.65;34.38;;;7.30;99.90;;;6.25;100.00;97160.41;4997831;28;20409;-79
2023/04/07 04:16:16;;;;;;;107.45;30.83;;;7.30;99.90;;;6.23;100.00;97157.22;5015427;28;20405;-79
2023/04/07 04:18:44;;;;;;;110.10;31.03;;;7.30;99.90;;;6.22;100.00;97155.63;5015052;28;20425;-79
2023/04/07 04:21:10;;;;;;;139.60;37.03;;;7.30;99.90;;;6.22;100.00;97150.38;5014899;28;20400;-78
2023/04/07 04:23:35;;;;;;;121.97;33.27;;;7.30;99.90;;;6.20;100.00;97150.59;5014640;28;20585;-78
2023/04/07 04:26:02;;;;;;;142.27;36.72;;;7.30;99.90;;;6.19;100.00;97143.75;5010213;28;20418;-79
2023/04/07 04:28:28;;;;;;;112.35;31.30;;;7.30;99.90;;;6.15;100.00;97142.59;5011994;28;20405;-79
2023/04/07 04:30:56;;;;;;;108.75;29.95;;;7.20;99.90;;;6.12;100.00;97143.06;5011757;28;20441;-79
2023/04/07 04:33:22;;;;;;;135.68;34.15;;;7.20;99.90;;;6.13;100.00;97136.78;5009640;28;20443;-78
2023/04/07 04:35:49;;;;;;;98.73;28.97;;;7.30;99.90;;;6.15;100.00;97145.25;4993294;28;20406;-78
2023/04/07 04:38:15;;;;;;;131.10;36.60;;;7.20;99.90;;;6.20;100.00;97150.59;5010875;28;20418;-79
2023/04/07 04:40:41;;;;;;;113.72;32.13;;;7.30;99.90;;;6.11;100.00;97146.69;5020959;28;20425;-79
2023/04/07 04:43:08;;;;;;;100.72;28.88;;;7.20;99.90;;;6.08;100.00;97143.75;5019527;28;20427;-79
2023/04/07 04:45:35;;;;;;;132.30;34.03;;;7.20;99.90;;;6.05;100.00;97147.63;5015027;28;20977;-80
2023/04/07 04:48:01;;;;;;;133.93;36.25;;;7.10;99.90;;;6.07;100.00;97147.41;5009256;28;20409;-80
2023/04/07 04:50:27;;;;;;;100.20;29.92;;;7.10;99.90;;;6.01;100.00;97146.50;5017901;28;20427;-79
2023/04/07 04:52:54;;;;;;;144.63;36.03;;;7.10;99.90;;;6.02;100.00;97147.25;5017341;28;20396;-80
2023/04/07 04:55:20;;;;;;;102.30;30.67;;;7.10;99.90;;;5.98;100.00;97136.41;5017833;28;20404;-79
2023/04/07 04:57:46;;;;;;;134.77;34.80;;;7.10;99.90;;;5.98;100.00;97144.31;5018034;28;20401;-80
2023/04/07 05:00:15;;;;;;;121.75;33.13;;;7.10;99.90;;;5.95;100.00;97149.19;5017387;28;20480;-79
2023/04/07 05:02:41;;;;;;;114.03;32.42;;;7.00;99.90;;;5.89;100.00;97153.53;5015828;28;20433;-79
2023/04/07 05:05:08;;;;;;;139.95;37.17;;;7.00;99.90;;;5.91;100.00;97148.88;5018234;28;20436;-78
2023/04/07 05:07:34;;;;;;;139.43;37.33;;;7.00;99.90;;;5.91;100.00;97154.13;5022545;28;20447;-79
2023/04/07 05:10:03;;;;;;;110.22;31.02;;;7.00;99.90;;;5.86;100.00;97158.44;5021631;28;20397;-79
2023/04/07 05:12:29;;;;;;;94.03;28.85;;;6.90;99.90;;;5.84;100.00;97154.19;5016896;28;20415;-78
2023/04/07 05:14:55;;;;;;;137.57;35.15;;;6.90;99.90;;;5.92;100.00;97154.94;5000153;28;20451;-79
2023/04/07 05:17:21;;;;;;;118.68;33.08;;;7.00;99.90;;;5.91;100.00;97161.19;5019315;28;20417;-79
2023/04/07 05:19:47;;;;;;;138.50;37.20;;;7.00;99.90;;;5.91;100.00;97156.75;5020449;28;20549;-78
2023/04/07 05:22:14;;;;;;;98.97;29.50;;;7.00;99.90;;;5.90;100.00;97156.97;5017771;28;20902;-79
2023/04/07 05:24:40;;;;;;;141.30;37.67;;;6.90;99.90;;;5.95;100.00;97164.97;5002161;28;20408;-79
2023/04/07 05:27:07;;;;;;;140.93;38.88;;;7.00;99.90;;;5.99;100.00;97151.16;5017331;28;20866;-79
2023/04/07 05:29:33;;;;;;;149.48;37.17;;;7.00;99.90;;;5.88;100.00;97166.91;4999950;28;21000;-78
2023/04/07 05:32:00;;;;;;;121.28;32.40;;;7.00;99.90;;;5.88;100.00;97154.56;5017145;28;20405;-79
2023/04/07 05:34:27;;;;;;;96.38;28.23;;;6.90;99.90;;;5.90;100.00;97157.78;5013833;28;20420;-79
2023/04/07 05:36:53;;;;;;;94.00;26.70;;;7.00;99.90;;;5.96;100.00;97162.13;5017496;28;20400;-79
2023/04/07 05:39:19;;;;;;;114.80;31.73;;;7.00;99.90;;;6.04;100.00;97156.53;5016823;28;20436;-79
2023/04/07 05:41:45;;;;;;;97.65;28.33;;;7.10;99.90;;;6.07;100.00;97161.34;5017525;28;20408;-79
2023/04/07 05:44:12;;;;;;;132.97;35.90;;;7.10;99.90;;;6.12;100.00;97156.19;5016098;28;20771;-79
2023/04/07 05:46:38;;;;;;;126.95;34.88;;;7.20;99.90;;;6.12;100.00;97158.81;5016038;28;20778;-79
2023/04/07 05:49:04;;;;;;;97.87;29.83;;;7.20;99.90;;;6.13;100.00;97155.16;5014783;28;20409;-77
2023/04/07 05:51:30;;;;;;;104.00;30.58;;;7.10;99.90;;;6.17;100.00;97161.56;5011506;28;20415;-77
2023/04/07 05:53:57;;;;;;;145.77;39.43;;;7.20;99.90;;;6.21;100.00;97161.91;5013512;28;20416;-77
2023/04/07 05:56:23;;;;;;;111.45;31.20;;;7.20;99.90;;;6.19;100.00;97156.88;5013164;28;20449;-77
2023/04/07 05:58:49;;;;;;;108.65;30.20;;;7.30;99.90;;;6.25;100.00;97155.16;5012143;28;20988;-77
2023/04/07 06:01:16;;;;;;;137.90;36.10;;;7.30;99.90;;;6.28;100.00;97165.22;4994729;28;21061;-77
2023/04/07 06:03:42;;;;;;;127.97;32.40;;;7.30;99.90;;;6.30;100.00;97157.13;5011839;28;20455;-77
2023/04/07 06:06:08;;;;;;;141.70;34.95;;;7.30;99.90;;;6.35;100.00;97157.22;5012774;28;20492;-76
2023/04/07 06:08:35;;;;;;;117.63;31.77;;;7.40;99.90;;;6.37;100.00;97163.06;5013671;28;20412;-79
2023/04/07 06:11:01;;;;;;;134.88;38.03;;;7.40;99.90;;;6.42;100.00;97166.59;5011580;28;20894;-78
2023/04/07 06:13:27;;;;;;;105.20;29.33;;;7.40;99.90;;;6.46;100.00;97162.47;5014875;28;20443;-79
2023/04/07 06:15:55;;;;;;;90.50;27.13;;;7.50;99.90;;;6.52;100.00;97163.38;5017168;28;20484;-78
2023/04/07 06:18:23;;;;;;;101.70;28.23;;;7.50;99.90;;;6.59;100.00;97162.22;4996874;28;20424;-79
2023/04/07 06:20:49;;;;;;;88.67;25.57;;;7.60;99.90;;;6.66;100.00;97166.56;5017783;28;20412;-79
2023/04/07 06:23:15;;;;;;;95.88;27.67;;;7.60;99.90;;;6.71;100.00;97162.19;4999482;28;20992;-79
2023/04/07 06:25:41;;;;;;;89.32;26.02;;;7.70;99.90;;;6.75;100.00;97165.19;5017528;28;20476;-79
2023/04/07 06:28:08;;;;;;;98.23;26.73;;;7.70;99.90;;;6.80;100.00;97160.81;5015301;28;20495;-77
2023/04/07 06:30:35;;;;;;;94.10;27.63;;;7.80;99.90;;;6.82;100.00;97160.59;5014827;28;20409;-79
2023/04/07 06:33:03;;;;;;;94.68;26.83;;;7.80;99.90;;;6.86;100.00;97167.78;5015951;28;20415;-79
2023/04/07 06:35:31;;;;;;;92.78;25.83;;;7.80;99.90;;;6.90;100.00;97165.50;5008755;28;20400;-79
2023/04/07 06:37:57;;;;;;;92.57;26.42;;;7.90;99.90;;;6.94;100.00;97166.63;5023156;28;20416;-80
2023/04/07 06:40:23;;;;;;;98.32;26.48;;;7.90;99.90;;;6.98;100.00;97160.66;5019246;28;20492;-80
2023/04/07 06:42:50;;;;;;;108.00;29.73;;;8.00;99.90;;;7.01;100.00;97167.28;5019164;28;20407;-79
2023/04/07 06:45:19;;;;;;;94.88;27.40;;;8.00;99.90;;;7.04;100.00;97160.75;5026303;28;20414;-77
2023/04/07 06:47:46;;;;;;;99.95;27.20;;;8.00;99.90;;;7.08;100.00;97170.56;5019295;28;20929;-78
2023/04/07 06:50:12;;;;;;;90.38;25.77;;;8.10;99.90;;;7.12;100.00;97169.09;5016115;28;20479;-76
2023/04/07 06:52:39;;;;;;;108.85;28.92;;;8.10;99.90;;;7.15;100.00;97160.72;5017263;28;20814;-76
2023/04/07 06:55:07;;;;;;;108.18;29.67;;;8.10;99.90;;;7.18;100.00;97164.72;5019025;28;20409;-76
2023/04/07 06:57:32;;;;;;;138.43;35.42;;;8.20;99.90;;;7.17;100.00;97163.13;5012802;28;20412;-76
2023/04/07 06:59:58;;;;;;;137.52;37.40;;;8.10;99.90;;;7.11;100.00;97162.22;5014249;28;20759;-76
2023/04/07 07:02:24;;;;;;;106.27;32.77;;;8.10;99.90;;;7.07;100.00;97160.31;5013606;28;20411;-76
2023/04/07 07:04:50;;;;;;;128.35;37.55;;;8.00;99.90;;;7.05;100.00;97159.72;4996912;28;20412;-76
2023/04/07 07:07:16;;;;;;;128.00;34.75;;;8.00;99.90;;;7.03;100.00;97167.06;5014359;28;20412;-76
2023/04/07 07:09:43;;;;;;;131.00;34.45;;;8.00;99.90;;;7.03;100.00;97164.41;5014257;28;20423;-75
2023/04/07 07:12:09;;;;;;;116.15;30.33;;;8.10;99.90;;;7.01;100.00;97164.66;5014313;28;20396;-77
2023/04/07 07:14:35;;;;;;;142.18;42.50;;;8.00;99.90;;;7.00;100.00;97155.16;5018479;28;20418;-80
2023/04/07 07:17:01;;;;;;;140.25;44.90;;;7.90;99.90;;;6.86;100.00;97159.09;5020242;28;20400;-80
2023/04/07 07:19:27;;;;;;;128.80;41.93;;;7.80;99.90;;;6.74;100.00;97160.94;5018996;28;20456;-78
2023/04/07 07:21:54;;;;;;;142.63;41.67;;;7.70;99.90;;;6.72;100.00;97155.91;5001079;28;20413;-79
2023/04/07 07:24:20;;;;;;;135.98;40.42;;;7.60;99.90;;;6.70;100.00;97157.16;5018212;28;20918;-78
2023/04/07 07:26:47;;;;;;;127.43;38.80;;;7.60;99.90;;;6.69;100.00;97161.63;5018527;28;20412;-77
2023/04/07 07:29:13;;;;;;;129.15;39.33;;;7.70;99.90;;;6.77;100.00;97166.53;5018545;28;20403;-78
2023/04/07 07:31:39;;;;;;;133.48;40.53;;;7.80;99.90;;;6.87;100.00;97172.00;5018129;28;20484;-78
2023/04/07 07:34:06;;;;;;;136.13;39.00;;;7.80;99.90;;;6.90;100.00;97163.66;5018429;28;20891;-79
2023/04/07 07:36:32;;;;;;;145.88;42.15;;;7.90;99.90;;;6.92;100.00;97166.84;5019274;28;20405;-78
2023/04/07 07:38:57;;;;;;;143.30;39.88;;;7.90;99.90;;;6.93;100.00;97168.44;5019941;28;20599;-78
2023/04/07 07:41:23;;;;;;;135.88;41.03;;;8.00;99.90;;;6.96;100.00;97173.25;5019313;28;20435;-79
2023/04/07 07:43:51;;;;;;;132.83;40.00;;;7.90;99.90;;;6.91;100.00;97167.91;5019097;28;20428;-79
2023/04/07 07:46:16;;;;;;;123.10;41.00;;;7.90;99.90;;;6.89;100.00;97174.41;5017436;28;20918;-79
2023/04/07 07:48:42;;;;;;;123.53;37.93;;;7.80;99.90;;;6.90;100.00;97166.28;5020563;28;20398;-79
2023/04/07 07:51:08;;;;;;;111.25;35.15;;;7.80;99.90;;;6.96;100.00;97175.88;5020941;28;20844;-79
2023/04/07 07:53:34;;;;;;;133.07;38.75;;;7.90;99.90;;;7.03;100.00;97172.31;5019864;28;20471;-79
2023/04/07 07:56:00;;;;;;;125.72;38.58;;;8.00;99.90;;;7.10;100.00;97171.16;5019872;28;20409;-79
2023/04/07 07:58:26;;;;;;;112.90;35.00;;;8.00;99.90;;;7.17;100.00;97166.53;5001638;28;20428;-78
2023/04/07 08:00:54;;;;;;;103.80;31.08;;;8.10;99.90;;;7.21;100.00;97172.16;5017551;28;20405;-79
2023/04/07 08:03:21;;;;;;;90.07;31.08;;;8.10;99.90;;;7.24;100.00;97169.84;5016225;28;20408;-79
2023/04/07 08:05:48;;;;;;;87.45;27.67;;;8.20;99.90;;;7.35;100.00;97166.38;5019001;28;20412;-79
2023/04/07 08:08:14;;;;;;;84.93;27.35;;;8.30;99.90;;;7.49;100.00;97164.25;5019449;28;20771;-79
2023/04/07 08:10:40;;;;;;;94.93;29.80;;;8.40;99.90;;;7.58;100.00;97162.03;5018926;28;20404;-79
2023/04/07 08:13:06;;;;;;;83.17;25.87;;;8.50;99.90;;;7.75;100.00;97168.09;5017821;28;20408;-79
2023/04/07 08:15:32;;;;;;;73.90;23.88;;;8.60;99.90;;;7.92;100.00;97171.56;5017874;28;20420;-79
2023/04/07 08:18:03;;;;;;;54.22;19.27;;;8.80;99.90;;;8.23;100.00;97172.84;5016829;28;20412;-78
2023/04/07 08:20:30;;;;;;;49.83;17.77;;;9.00;99.90;;;8.55;100.00;97175.72;5016610;28;20484;-79
2023/04/07 08:22:56;;;;;;;45.95;17.17;;;9.30;99.90;;;8.81;100.00;97177.63;5015607;28;20401;-78
2023/04/07 08:25:22;;;;;;;41.92;15.95;;;9.60;99.90;;;9.07;100.00;97180.59;5015122;28;20508;-78
2023/04/07 08:27:48;;;;;;;37.67;14.20;;;9.80;99.90;;;9.32;100.00;97186.94;5013838;28;20890;-77
2023/04/07 08:30:15;;;;;;;32.53;13.77;;;10.10;99.90;;;9.43;100.00;97185.22;5012826;28;20476;-76
2023/04/07 08:32:43;;;;;;;29.27;12.75;;;10.20;99.90;;;9.55;100.00;97185.06;5012339;28;20412;-76
2023/04/07 08:35:11;;;;;;;25.10;11.05;;;10.30;99.90;;;9.63;100.00;97188.06;5013073;28;20778;-77
2023/04/07 08:37:39;;;;;;;25.27;10.93;;;10.40;99.90;;;9.73;100.00;97182.09;5012669;28;20408;-76
2023/04/07 08:40:06;;;;;;;28.65;11.98;;;10.50;99.90;;;9.72;100.00;97196.34;5012943;28;20448;-77
2023/04/07 08:42:34;;;;;;;21.27;10.50;;;10.50;99.90;;;9.77;100.00;97192.97;5014487;28;20582;-76
2023/04/07 08:45:05;;;;;;;26.33;11.02;;;10.50;99.90;;;9.77;100.00;97190.34;5015335;28;20409;-78
2023/04/07 08:47:33;;;;;;;28.13;12.38;;;10.50;99.90;;;9.80;100.00;97182.69;5015388;28;20401;-78
2023/04/07 08:50:02;;;;;;;29.17;12.57;;;10.60;99.90;;;9.87;100.00;97182.47;5015600;28;20408;-78
2023/04/07 08:52:35;;;;;;;25.63;12.23;;;10.70;99.90;;;9.68;100.00;97184.69;5015367;28;20401;-78
2023/04/07 08:55:05;;;;;;;25.23;12.05;;;10.40;99.90;;;9.59;100.00;97183.53;5014887;28;20408;-78
2023/04/07 08:57:32;;;;;;;21.25;10.25;;;10.40;99.90;;;9.61;100.00;97189.38;5013974;28;20407;-79
2023/04/07 09:00:04;;;;;;;27.52;11.45;;;10.40;99.90;;;9.74;100.00;97185.53;5012897;28;20425;-77
2023/04/07 09:02:32;;;;;;;21.20;11.80;;;10.50;99.90;;;9.83;100.00;97184.03;5012853;28;20779;-77
2023/04/07 09:04:58;;;;;;;18.88;10.25;;;10.60;99.90;;;10.14;100.00;97185.91;5012917;28;20423;-77
2023/04/07 09:07:24;;;;;;;17.35;9.30;;;10.80;99.90;;;10.39;100.00;97196.69;5012980;28;20432;-77
2023/04/07 09:09:55;;;;;;;13.23;8.70;;;11.10;99.90;;;10.74;100.00;97190.03;5012126;28;20459;-77
2023/04/07 09:12:21;;;;;;;18.90;9.63;;;11.40;99.90;;;11.00;100.00;97193.59;5012200;28;20814;-77
2023/04/07 09:14:46;;;;;;;14.90;8.93;;;11.70;99.90;;;11.02;100.00;97194.94;4994397;28;20405;-77
2023/04/07 09:17:12;;;;;;;19.57;9.93;;;11.70;99.90;;;10.97;100.00;97192.28;5011935;28;20945;-77
2023/04/07 09:19:38;;;;;;;14.45;9.35;;;11.80;99.90;;;10.98;100.00;97193.84;5011768;28;20519;-77
2023/04/07 09:22:04;;;;;;;16.63;9.13;;;11.70;99.90;;;11.05;100.00;97188.34;5012290;28;20409;-77
2023/04/07 09:24:30;;;;;;;15.20;9.65;;;11.80;99.90;;;10.91;100.00;97193.28;5012570;28;20408;-77
2023/04/07 09:27:12;;;;;;;12.97;8.33;;;11.60;99.90;;;11.04;100.00;97192.84;5014900;28;20492;-77
2023/04/07 09:29:39;;;;;;;11.23;8.00;;;11.70;99.90;;;11.19;100.00;97187.59;5018629;28;20403;-77
2023/04/07 09:32:06;;;;;;;10.90;7.97;;;11.90;99.90;;;11.46;100.00;97190.06;5006417;28;20428;-77
2023/04/07 09:34:35;;;;;;;12.02;7.55;;;12.10;99.90;;;11.64;100.00;97189.59;5024194;28;20401;-77
2023/04/07 09:37:02;;;;;;;14.15;8.60;;;12.20;99.90;;;11.97;100.00;97184.88;5018534;28;20433;-77
2023/04/07 09:39:28;;;;;;;9.60;7.43;;;12.50;99.90;;;12.08;100.00;97188.34;5013607;28;20423;-77
2023/04/07 09:41:54;;;;;;;13.50;7.15;;;12.70;99.90;;;12.19;100.00;97187.25;4996268;28;20487;-77
2023/04/07 09:44:23;;;;;;;14.05;8.52;;;12.80;99.90;;;12.03;100.00;97194.41;5013675;28;20471;-77
2023/04/07 09:46:51;;;;;;;10.88;6.32;;;12.70;99.90;;;12.10;100.00;97181.72;5014072;28;20405;-77
2023/04/07 09:49:19;;;;;;;9.93;7.30;;;12.80;99.90;;;11.92;100.00;97185.66;4996485;28;20412;-77
2023/04/07 09:51:53;;;;;;;11.88;7.25;;;12.60;99.90;;;11.77;100.00;97196.25;5013481;28;20972;-77
2023/04/07 09:54:33;;;;;;;11.90;7.20;;;12.60;99.90;;;11.56;100.00;97186.66;5012433;28;20404;-78
2023/04/07 09:57:01;;;;;;;12.60;6.97;;;12.40;99.90;;;11.42;100.00;97194.31;5013517;28;20474;-77
2023/04/07 09:59:29;;;;;;;15.93;7.35;;;12.20;99.90;;;11.28;100.00;97189.75;5014773;28;20463;-78
2023/04/07 10:01:55;;;;;;;10.23;6.40;;;12.10;99.90;;;11.18;100.00;97195.81;5016065;28;20953;-78
2023/04/07 10:04:22;;;;;;;10.68;7.72;;;12.00;99.90;;;11.09;100.00;97197.34;5016658;28;20413;-78
2023/04/07 10:06:49;;;;;;;13.70;7.32;;;11.90;99.90;;;11.06;100.00;97190.69;4999158;28;20416;-78